San Angelo Regional Mathis Field
KSJT : now visible

Airfield :











YOU CAN JOIN US ON...

 
LOGIN :

Register | Disclaimer

   EN    FR    IT 

 









Legend :    VFR   Marginal VFR   IFR   Intensive IFR   Very Intensive IFR
Visi :
Ceiling :
>= 8 km
>= 3000ft
5 to 8 km
1000 to 3000 ft
1500m to 5 km
500 to 1000 ft
800 to 1500m
200 to 500 ft
< 800m
< 200 ft
Symbols :   Thunderstorms  Fog  Heavy snow  Heavy precipitations  Wind > 20 kt






- Airport Elevation : 1919 ft
- IATA code : SJT


KSJT - San Angelo Regional Mathis Field

CURRENT METAR :
  • 051851Z 23014G21KT 10SM CLR 27/03 A2993 RMK AO2 SLP123 T02670033

EXPIRED METARs :
  • 051751Z 22012KT 10SM CLR 24/04 A2999 RMK AO2 SLP142 T02440039 10244 20100 58006
  • 051651Z 24012KT 10SM CLR 22/03 A3001 RMK AO2 SLP151 T02170033

TAF KSJT
Valid from the 05 at 18:00 until the 06 at 18:00 UTC


051730Z 0518/0618 24014G22KT P6SM SCT250
FM060000 23010KT P6SM SKC
FM060800 33012KT P6SM SKC



MET'MAP, your aeronautical weather chart ! - Copyright ORBIFLY December 2007 - Disclaimer

ORBIFLY MET'MAP TEAM :

Programming & Development : Alexandra Zaïnal
Concept & original design : Baudouin d'Aumeries
Assistance for programming : Marc-Olivier Méhu
Technical & hardware support : Manuel Goepfert

Contact : metmap@orbifly.com




SOURCES & CREDITS :

   NOAA       Earth
Advisory